sensor_id;sensor_type;location;lat;lon;timestamp;temperature;humidity
54168;DHT22;68429;50.958;3.592;2023-06-10T00:00:43;21.90;94.80
54168;DHT22;68429;50.958;3.592;2023-06-10T00:03:10;21.80;95.00
54168;DHT22;68429;50.958;3.592;2023-06-10T00:05:36;21.80;95.10
54168;DHT22;68429;50.958;3.592;2023-06-10T00:08:04;21.80;95.10
54168;DHT22;68429;50.958;3.592;2023-06-10T00:10:36;21.80;95.20
54168;DHT22;68429;50.958;3.592;2023-06-10T00:13:03;21.80;95.30
54168;DHT22;68429;50.958;3.592;2023-06-10T00:15:30;21.70;95.40
54168;DHT22;68429;50.958;3.592;2023-06-10T00:17:56;21.50;96.00
54168;DHT22;68429;50.958;3.592;2023-06-10T00:20:22;21.50;96.00
54168;DHT22;68429;50.958;3.592;2023-06-10T00:22:49;21.40;96.20
54168;DHT22;68429;50.958;3.592;2023-06-10T00:25:15;21.40;96.30
54168;DHT22;68429;50.958;3.592;2023-06-10T00:27:41;21.50;96.20
54168;DHT22;68429;50.958;3.592;2023-06-10T00:30:07;21.30;96.50
54168;DHT22;68429;50.958;3.592;2023-06-10T00:32:36;21.30;96.50
54168;DHT22;68429;50.958;3.592;2023-06-10T00:35:05;21.30;96.70
54168;DHT22;68429;50.958;3.592;2023-06-10T00:37:32;21.30;96.70
54168;DHT22;68429;50.958;3.592;2023-06-10T00:39:58;21.20;96.80
54168;DHT22;68429;50.958;3.592;2023-06-10T00:42:23;21.20;96.90
54168;DHT22;68429;50.958;3.592;2023-06-10T00:44:54;21.20;97.00
54168;DHT22;68429;50.958;3.592;2023-06-10T00:47:20;21.10;97.20
54168;DHT22;68429;50.958;3.592;2023-06-10T00:49:46;21.00;97.20
54168;DHT22;68429;50.958;3.592;2023-06-10T00:52:14;21.10;97.30
54168;DHT22;68429;50.958;3.592;2023-06-10T00:54:40;21.20;97.20
54168;DHT22;68429;50.958;3.592;2023-06-10T00:57:06;21.10;97.40
54168;DHT22;68429;50.958;3.592;2023-06-10T00:59:32;21.10;97.30
54168;DHT22;68429;50.958;3.592;2023-06-10T01:01:58;21.00;97.50
54168;DHT22;68429;50.958;3.592;2023-06-10T01:04:24;20.90;97.70
54168;DHT22;68429;50.958;3.592;2023-06-10T01:07:25;21.10;97.40
54168;DHT22;68429;50.958;3.592;2023-06-10T01:10:19;21.00;97.60
54168;DHT22;68429;50.958;3.592;2023-06-10T01:12:52;21.10;97.30
54168;DHT22;68429;50.958;3.592;2023-06-10T01:15:22;21.00;97.50
54168;DHT22;68429;50.958;3.592;2023-06-10T01:18:02;20.90;97.70
54168;DHT22;68429;50.958;3.592;2023-06-10T01:20:29;20.90;97.70
54168;DHT22;68429;50.958;3.592;2023-06-10T01:22:58;21.00;97.60
54168;DHT22;68429;50.958;3.592;2023-06-10T01:25:27;20.90;97.60
54168;DHT22;68429;50.958;3.592;2023-06-10T01:30:47;21.00;97.70
54168;DHT22;68429;50.958;3.592;2023-06-10T01:33:15;20.90;97.80
54168;DHT22;68429;50.958;3.592;2023-06-10T01:35:43;21.00;97.80
54168;DHT22;68429;50.958;3.592;2023-06-10T01:38:12;20.90;97.80
54168;DHT22;68429;50.958;3.592;2023-06-10T01:40:40;20.80;98.00
54168;DHT22;68429;50.958;3.592;2023-06-10T01:43:06;20.70;98.20
54168;DHT22;68429;50.958;3.592;2023-06-10T01:45:32;20.70;98.20
54168;DHT22;68429;50.958;3.592;2023-06-10T01:47:57;20.60;98.50
54168;DHT22;68429;50.958;3.592;2023-06-10T01:50:23;20.50;98.60
54168;DHT22;68429;50.958;3.592;2023-06-10T01:52:49;20.70;98.20
54168;DHT22;68429;50.958;3.592;2023-06-10T01:55:14;20.60;98.30
54168;DHT22;68429;50.958;3.592;2023-06-10T01:57:40;20.60;98.50
54168;DHT22;68429;50.958;3.592;2023-06-10T02:00:06;20.50;98.70
54168;DHT22;68429;50.958;3.592;2023-06-10T02:02:33;20.50;98.50
54168;DHT22;68429;50.958;3.592;2023-06-10T02:04:58;20.40;98.90
54168;DHT22;68429;50.958;3.592;2023-06-10T02:07:25;20.30;99.40
54168;DHT22;68429;50.958;3.592;2023-06-10T02:09:51;20.20;99.30
54168;DHT22;68429;50.958;3.592;2023-06-10T02:12:16;20.30;99.10
54168;DHT22;68429;50.958;3.592;2023-06-10T02:14:42;20.30;99.00
54168;DHT22;68429;50.958;3.592;2023-06-10T02:17:08;20.20;99.60
54168;DHT22;68429;50.958;3.592;2023-06-10T02:19:38;20.20;99.50
54168;DHT22;68429;50.958;3.592;2023-06-10T02:22:08;20.10;99.60
54168;DHT22;68429;50.958;3.592;2023-06-10T02:24:35;20.30;99.20
54168;DHT22;68429;50.958;3.592;2023-06-10T02:27:00;20.40;99.10
54168;DHT22;68429;50.958;3.592;2023-06-10T02:29:26;20.20;99.30
54168;DHT22;68429;50.958;3.592;2023-06-10T02:31:52;20.10;99.40
54168;DHT22;68429;50.958;3.592;2023-06-10T02:34:18;20.00;99.60
54168;DHT22;68429;50.958;3.592;2023-06-10T02:36:44;20.00;99.70
54168;DHT22;68429;50.958;3.592;2023-06-10T02:39:09;20.00;99.70
54168;DHT22;68429;50.958;3.592;2023-06-10T02:41:35;19.90;99.90
54168;DHT22;68429;50.958;3.592;2023-06-10T02:44:01;19.90;99.90
54168;DHT22;68429;50.958;3.592;2023-06-10T02:46:27;20.00;99.90
54168;DHT22;68429;50.958;3.592;2023-06-10T02:48:54;20.00;99.80
54168;DHT22;68429;50.958;3.592;2023-06-10T02:51:20;19.80;99.90
54168;DHT22;68429;50.958;3.592;2023-06-10T02:53:46;19.70;99.90
54168;DHT22;68429;50.958;3.592;2023-06-10T02:56:13;19.60;99.90
54168;DHT22;68429;50.958;3.592;2023-06-10T02:58:39;19.70;99.90
54168;DHT22;68429;50.958;3.592;2023-06-10T03:01:05;19.60;99.90
54168;DHT22;68429;50.958;3.592;2023-06-10T03:03:30;19.60;99.90
54168;DHT22;68429;50.958;3.592;2023-06-10T03:05:59;19.50;99.90
54168;DHT22;68429;50.958;3.592;2023-06-10T03:08:24;19.50;99.90
54168;DHT22;68429;50.958;3.592;2023-06-10T03:10:50;19.60;99.90
54168;DHT22;68429;50.958;3.592;2023-06-10T03:13:16;19.60;99.90
54168;DHT22;68429;50.958;3.592;2023-06-10T03:15:42;19.50;99.90
54168;DHT22;68429;50.958;3.592;2023-06-10T03:18:07;19.60;99.90
54168;DHT22;68429;50.958;3.592;2023-06-10T03:20:33;19.70;99.90
54168;DHT22;68429;50.958;3.592;2023-06-10T03:23:02;19.50;99.90
54168;DHT22;68429;50.958;3.592;2023-06-10T03:25:28;19.40;99.90
54168;DHT22;68429;50.958;3.592;2023-06-10T03:27:54;19.50;99.90
54168;DHT22;68429;50.958;3.592;2023-06-10T03:30:19;19.40;99.90
54168;DHT22;68429;50.958;3.592;2023-06-10T03:32:45;19.40;99.90
54168;DHT22;68429;50.958;3.592;2023-06-10T03:35:11;19.50;99.90
54168;DHT22;68429;50.958;3.592;2023-06-10T03:37:37;19.30;99.90
54168;DHT22;68429;50.958;3.592;2023-06-10T03:40:03;19.20;99.90
54168;DHT22;68429;50.958;3.592;2023-06-10T03:42:29;19.20;99.90
54168;DHT22;68429;50.958;3.592;2023-06-10T03:44:55;19.30;99.90
54168;DHT22;68429;50.958;3.592;2023-06-10T03:47:21;19.30;99.90
54168;DHT22;68429;50.958;3.592;2023-06-10T03:49:50;19.40;99.90
54168;DHT22;68429;50.958;3.592;2023-06-10T03:52:17;19.30;99.90
54168;DHT22;68429;50.958;3.592;2023-06-10T03:54:42;19.30;99.90
54168;DHT22;68429;50.958;3.592;2023-06-10T03:57:08;19.10;99.90
54168;DHT22;68429;50.958;3.592;2023-06-10T03:59:34;19.30;99.90
54168;DHT22;68429;50.958;3.592;2023-06-10T04:01:59;19.40;99.90
54168;DHT22;68429;50.958;3.592;2023-06-10T04:04:26;19.40;99.90
54168;DHT22;68429;50.958;3.592;2023-06-10T04:06:52;19.20;99.90
54168;DHT22;68429;50.958;3.592;2023-06-10T04:09:18;19.20;99.90
54168;DHT22;68429;50.958;3.592;2023-06-10T04:11:44;19.10;99.90
54168;DHT22;68429;50.958;3.592;2023-06-10T04:14:10;19.00;99.90
54168;DHT22;68429;50.958;3.592;2023-06-10T04:16:35;19.20;99.90
54168;DHT22;68429;50.958;3.592;2023-06-10T04:19:01;19.20;99.90
54168;DHT22;68429;50.958;3.592;2023-06-10T04:21:27;19.30;99.90
54168;DHT22;68429;50.958;3.592;2023-06-10T04:23:53;19.40;99.90
54168;DHT22;68429;50.958;3.592;2023-06-10T04:26:19;19.20;99.90
54168;DHT22;68429;50.958;3.592;2023-06-10T04:28:44;19.20;99.90
54168;DHT22;68429;50.958;3.592;2023-06-10T04:31:10;19.30;99.90
54168;DHT22;68429;50.958;3.592;2023-06-10T04:33:36;19.50;99.90
54168;DHT22;68429;50.958;3.592;2023-06-10T04:36:02;19.40;99.90
54168;DHT22;68429;50.958;3.592;2023-06-10T04:38:28;19.40;99.90
54168;DHT22;68429;50.958;3.592;2023-06-10T04:40:53;19.50;99.90
54168;DHT22;68429;50.958;3.592;2023-06-10T04:43:19;19.50;99.90
54168;DHT22;68429;50.958;3.592;2023-06-10T04:45:45;19.50;99.90
54168;DHT22;68429;50.958;3.592;2023-06-10T04:48:11;19.50;99.90
54168;DHT22;68429;50.958;3.592;2023-06-10T04:50:37;19.60;99.90
54168;DHT22;68429;50.958;3.592;2023-06-10T04:53:02;19.60;99.90
54168;DHT22;68429;50.958;3.592;2023-06-10T04:55:28;19.80;99.90
54168;DHT22;68429;50.958;3.592;2023-06-10T04:57:54;19.70;99.90
54168;DHT22;68429;50.958;3.592;2023-06-10T05:00:20;19.80;99.90
54168;DHT22;68429;50.958;3.592;2023-06-10T05:02:46;19.80;99.90
54168;DHT22;68429;50.958;3.592;2023-06-10T05:05:19;20.00;99.90
54168;DHT22;68429;50.958;3.592;2023-06-10T05:07:45;20.20;99.90
54168;DHT22;68429;50.958;3.592;2023-06-10T05:10:10;20.10;99.90
54168;DHT22;68429;50.958;3.592;2023-06-10T05:12:38;20.10;99.90
54168;DHT22;68429;50.958;3.592;2023-06-10T05:15:05;20.20;99.90
54168;DHT22;68429;50.958;3.592;2023-06-10T05:17:31;20.20;99.90
54168;DHT22;68429;50.958;3.592;2023-06-10T05:19:57;20.40;99.90
54168;DHT22;68429;50.958;3.592;2023-06-10T05:22:23;20.50;99.90
54168;DHT22;68429;50.958;3.592;2023-06-10T05:24:50;20.60;99.90
54168;DHT22;68429;50.958;3.592;2023-06-10T05:27:16;20.60;99.90
54168;DHT22;68429;50.958;3.592;2023-06-10T05:29:42;20.50;99.90
54168;DHT22;68429;50.958;3.592;2023-06-10T05:32:08;20.50;99.90
54168;DHT22;68429;50.958;3.592;2023-06-10T05:34:34;20.60;99.90
54168;DHT22;68429;50.958;3.592;2023-06-10T05:36:59;20.70;99.90
54168;DHT22;68429;50.958;3.592;2023-06-10T05:39:25;20.80;99.90
54168;DHT22;68429;50.958;3.592;2023-06-10T05:41:51;20.90;99.90
54168;DHT22;68429;50.958;3.592;2023-06-10T05:44:16;20.90;99.90
54168;DHT22;68429;50.958;3.592;2023-06-10T05:46:42;20.90;99.90
54168;DHT22;68429;50.958;3.592;2023-06-10T05:49:08;21.10;99.90
54168;DHT22;68429;50.958;3.592;2023-06-10T05:51:33;21.30;99.90
54168;DHT22;68429;50.958;3.592;2023-06-10T05:53:59;21.30;99.90
54168;DHT22;68429;50.958;3.592;2023-06-10T05:56:24;21.10;99.90
54168;DHT22;68429;50.958;3.592;2023-06-10T05:58:51;21.10;99.90
54168;DHT22;68429;50.958;3.592;2023-06-10T06:01:16;21.40;99.90
54168;DHT22;68429;50.958;3.592;2023-06-10T06:03:42;21.40;99.90
54168;DHT22;68429;50.958;3.592;2023-06-10T06:06:08;21.50;99.90
54168;DHT22;68429;50.958;3.592;2023-06-10T06:08:34;21.70;99.90
54168;DHT22;68429;50.958;3.592;2023-06-10T06:10:59;21.70;99.90
54168;DHT22;68429;50.958;3.592;2023-06-10T06:13:25;21.70;99.90
54168;DHT22;68429;50.958;3.592;2023-06-10T06:15:51;22.00;99.90
54168;DHT22;68429;50.958;3.592;2023-06-10T06:18:16;21.90;99.90
54168;DHT22;68429;50.958;3.592;2023-06-10T06:20:43;21.90;99.90
54168;DHT22;68429;50.958;3.592;2023-06-10T06:23:10;22.10;99.90
54168;DHT22;68429;50.958;3.592;2023-06-10T06:25:36;22.40;99.90
54168;DHT22;68429;50.958;3.592;2023-06-10T06:28:06;22.80;99.90
54168;DHT22;68429;50.958;3.592;2023-06-10T06:30:31;23.50;99.80
54168;DHT22;68429;50.958;3.592;2023-06-10T06:32:57;23.80;98.50
54168;DHT22;68429;50.958;3.592;2023-06-10T06:35:23;23.80;98.50
54168;DHT22;68429;50.958;3.592;2023-06-10T06:37:48;23.80;98.60
54168;DHT22;68429;50.958;3.592;2023-06-10T06:40:14;23.40;99.20
54168;DHT22;68429;50.958;3.592;2023-06-10T06:42:40;23.20;99.60
54168;DHT22;68429;50.958;3.592;2023-06-10T06:45:06;23.10;99.40
54168;DHT22;68429;50.958;3.592;2023-06-10T06:47:32;23.10;99.90
54168;DHT22;68429;50.958;3.592;2023-06-10T06:49:57;22.90;99.70
54168;DHT22;68429;50.958;3.592;2023-06-10T06:52:23;22.80;99.70
54168;DHT22;68429;50.958;3.592;2023-06-10T06:54:51;23.00;99.40
54168;DHT22;68429;50.958;3.592;2023-06-10T06:57:17;23.30;99.60
54168;DHT22;68429;50.958;3.592;2023-06-10T06:59:43;24.10;98.80
54168;DHT22;68429;50.958;3.592;2023-06-10T07:02:09;24.60;98.50
54168;DHT22;68429;50.958;3.592;2023-06-10T07:04:35;24.80;97.80
54168;DHT22;68429;50.958;3.592;2023-06-10T07:07:01;24.40;97.80
54168;DHT22;68429;50.958;3.592;2023-06-10T07:09:26;24.30;98.10
54168;DHT22;68429;50.958;3.592;2023-06-10T07:11:53;24.10;98.20
54168;DHT22;68429;50.958;3.592;2023-06-10T07:14:19;24.10;98.20
54168;DHT22;68429;50.958;3.592;2023-06-10T07:16:45;24.10;98.40
54168;DHT22;68429;50.958;3.592;2023-06-10T07:19:11;23.80;98.80
54168;DHT22;68429;50.958;3.592;2023-06-10T07:21:37;23.70;99.00
54168;DHT22;68429;50.958;3.592;2023-06-10T07:24:03;23.60;98.90
54168;DHT22;68429;50.958;3.592;2023-06-10T07:26:29;23.70;98.90
54168;DHT22;68429;50.958;3.592;2023-06-10T07:28:55;23.90;98.60
54168;DHT22;68429;50.958;3.592;2023-06-10T07:31:21;24.10;98.50
54168;DHT22;68429;50.958;3.592;2023-06-10T07:33:47;24.30;98.20
54168;DHT22;68429;50.958;3.592;2023-06-10T07:36:12;24.40;97.40
54168;DHT22;68429;50.958;3.592;2023-06-10T07:38:38;24.00;98.10
54168;DHT22;68429;50.958;3.592;2023-06-10T07:41:04;24.00;98.90
54168;DHT22;68429;50.958;3.592;2023-06-10T07:43:30;24.40;97.90
54168;DHT22;68429;50.958;3.592;2023-06-10T07:45:55;24.50;97.40
54168;DHT22;68429;50.958;3.592;2023-06-10T07:48:21;24.50;98.00
54168;DHT22;68429;50.958;3.592;2023-06-10T07:50:47;24.60;98.10
54168;DHT22;68429;50.958;3.592;2023-06-10T07:53:12;24.60;97.40
54168;DHT22;68429;50.958;3.592;2023-06-10T07:55:38;25.00;97.20
54168;DHT22;68429;50.958;3.592;2023-06-10T07:58:04;25.10;97.40
54168;DHT22;68429;50.958;3.592;2023-06-10T08:00:29;25.50;96.20
54168;DHT22;68429;50.958;3.592;2023-06-10T08:02:55;25.40;96.40
54168;DHT22;68429;50.958;3.592;2023-06-10T08:05:21;25.50;96.50
54168;DHT22;68429;50.958;3.592;2023-06-10T08:07:46;25.40;96.30
54168;DHT22;68429;50.958;3.592;2023-06-10T08:10:12;25.40;96.20
54168;DHT22;68429;50.958;3.592;2023-06-10T08:12:38;25.40;96.40
54168;DHT22;68429;50.958;3.592;2023-06-10T08:15:04;25.50;95.90
54168;DHT22;68429;50.958;3.592;2023-06-10T08:17:30;25.50;95.90
54168;DHT22;68429;50.958;3.592;2023-06-10T08:19:56;25.60;96.40
54168;DHT22;68429;50.958;3.592;2023-06-10T08:22:22;25.60;95.70
54168;DHT22;68429;50.958;3.592;2023-06-10T08:24:48;25.70;95.80
54168;DHT22;68429;50.958;3.592;2023-06-10T08:27:13;25.80;96.40
54168;DHT22;68429;50.958;3.592;2023-06-10T08:29:39;26.00;95.30
54168;DHT22;68429;50.958;3.592;2023-06-10T08:32:06;26.20;95.60
54168;DHT22;68429;50.958;3.592;2023-06-10T08:34:33;26.50;95.60
54168;DHT22;68429;50.958;3.592;2023-06-10T08:37:00;26.60;94.70
54168;DHT22;68429;50.958;3.592;2023-06-10T08:39:26;27.00;94.80
54168;DHT22;68429;50.958;3.592;2023-06-10T08:44:30;26.70;93.50
54168;DHT22;68429;50.958;3.592;2023-06-10T08:47:00;26.50;93.60
54168;DHT22;68429;50.958;3.592;2023-06-10T08:49:26;26.50;94.00
54168;DHT22;68429;50.958;3.592;2023-06-10T08:51:59;26.50;93.60
54168;DHT22;68429;50.958;3.592;2023-06-10T08:54:30;26.60;94.20
54168;DHT22;68429;50.958;3.592;2023-06-10T08:56:57;26.70;93.70
54168;DHT22;68429;50.958;3.592;2023-06-10T08:59:25;26.40;93.90
54168;DHT22;68429;50.958;3.592;2023-06-10T09:01:52;26.60;93.40
54168;DHT22;68429;50.958;3.592;2023-06-10T09:04:18;26.90;92.80
54168;DHT22;68429;50.958;3.592;2023-06-10T09:06:44;26.70;93.30
54168;DHT22;68429;50.958;3.592;2023-06-10T09:09:12;27.20;92.60
54168;DHT22;68429;50.958;3.592;2023-06-10T09:11:40;27.20;92.20
54168;DHT22;68429;50.958;3.592;2023-06-10T09:14:06;27.00;92.30
54168;DHT22;68429;50.958;3.592;2023-06-10T09:16:32;27.20;92.30
54168;DHT22;68429;50.958;3.592;2023-06-10T09:18:58;27.30;92.70
54168;DHT22;68429;50.958;3.592;2023-06-10T09:21:24;27.50;91.80
54168;DHT22;68429;50.958;3.592;2023-06-10T09:23:51;27.70;91.40
54168;DHT22;68429;50.958;3.592;2023-06-10T09:26:17;27.80;91.30
54168;DHT22;68429;50.958;3.592;2023-06-10T09:28:44;27.60;91.60
54168;DHT22;68429;50.958;3.592;2023-06-10T09:31:13;27.70;91.80
54168;DHT22;68429;50.958;3.592;2023-06-10T09:33:39;27.50;91.60
54168;DHT22;68429;50.958;3.592;2023-06-10T09:36:05;27.70;91.00
54168;DHT22;68429;50.958;3.592;2023-06-10T09:38:33;27.90;90.80
54168;DHT22;68429;50.958;3.592;2023-06-10T09:40:59;27.90;90.50
54168;DHT22;68429;50.958;3.592;2023-06-10T09:43:42;28.10;89.60
54168;DHT22;68429;50.958;3.592;2023-06-10T09:46:19;28.40;90.20
54168;DHT22;68429;50.958;3.592;2023-06-10T09:48:46;28.90;88.90
54168;DHT22;68429;50.958;3.592;2023-06-10T09:51:14;28.90;86.00
54168;DHT22;68429;50.958;3.592;2023-06-10T09:53:42;28.80;86.30
54168;DHT22;68429;50.958;3.592;2023-06-10T09:56:08;29.30;85.40
54168;DHT22;68429;50.958;3.592;2023-06-10T09:58:38;29.00;85.20
54168;DHT22;68429;50.958;3.592;2023-06-10T10:01:09;28.90;85.00
54168;DHT22;68429;50.958;3.592;2023-06-10T10:03:50;28.40;85.60
54168;DHT22;68429;50.958;3.592;2023-06-10T10:06:17;28.40;85.10
54168;DHT22;68429;50.958;3.592;2023-06-10T10:08:43;28.50;86.30
54168;DHT22;68429;50.958;3.592;2023-06-10T10:11:10;28.80;84.00
54168;DHT22;68429;50.958;3.592;2023-06-10T10:13:37;28.80;84.90
54168;DHT22;68429;50.958;3.592;2023-06-10T10:16:06;29.60;83.60
54168;DHT22;68429;50.958;3.592;2023-06-10T10:18:35;29.90;82.80
54168;DHT22;68429;50.958;3.592;2023-06-10T10:21:07;31.10;82.00
54168;DHT22;68429;50.958;3.592;2023-06-10T10:26:38;31.70;81.60
54168;DHT22;68429;50.958;3.592;2023-06-10T10:29:31;31.30;79.60
54168;DHT22;68429;50.958;3.592;2023-06-10T10:31:59;31.40;79.70
54168;DHT22;68429;50.958;3.592;2023-06-10T10:34:35;31.50;79.70
54168;DHT22;68429;50.958;3.592;2023-06-10T10:37:02;31.70;80.10
54168;DHT22;68429;50.958;3.592;2023-06-10T10:39:29;32.60;77.10
54168;DHT22;68429;50.958;3.592;2023-06-10T10:41:55;31.70;78.90
54168;DHT22;68429;50.958;3.592;2023-06-10T10:44:21;31.90;78.20
54168;DHT22;68429;50.958;3.592;2023-06-10T10:46:51;32.00;77.10
54168;DHT22;68429;50.958;3.592;2023-06-10T10:49:17;32.00;78.30
54168;DHT22;68429;50.958;3.592;2023-06-10T10:51:59;31.80;76.80
54168;DHT22;68429;50.958;3.592;2023-06-10T10:54:34;31.20;77.20
54168;DHT22;68429;50.958;3.592;2023-06-10T10:57:17;30.70;77.80
54168;DHT22;68429;50.958;3.592;2023-06-10T11:04:58;32.20;75.40
54168;DHT22;68429;50.958;3.592;2023-06-10T11:07:26;32.30;75.20
54168;DHT22;68429;50.958;3.592;2023-06-10T11:10:12;32.70;74.50
54168;DHT22;68429;50.958;3.592;2023-06-10T11:15:12;32.70;73.30
54168;DHT22;68429;50.958;3.592;2023-06-10T11:20:46;33.50;72.30
54168;DHT22;68429;50.958;3.592;2023-06-10T11:29:04;33.80;72.00
54168;DHT22;68429;50.958;3.592;2023-06-10T11:31:30;33.10;71.20
54168;DHT22;68429;50.958;3.592;2023-06-10T11:34:03;33.20;72.40
54168;DHT22;68429;50.958;3.592;2023-06-10T11:36:31;33.50;72.10
54168;DHT22;68429;50.958;3.592;2023-06-10T11:39:01;33.20;72.70
54168;DHT22;68429;50.958;3.592;2023-06-10T11:41:28;33.70;72.50
54168;DHT22;68429;50.958;3.592;2023-06-10T11:43:55;33.60;70.90
54168;DHT22;68429;50.958;3.592;2023-06-10T11:46:24;33.60;71.20
54168;DHT22;68429;50.958;3.592;2023-06-10T11:48:54;33.20;71.80
54168;DHT22;68429;50.958;3.592;2023-06-10T11:51:20;33.80;70.80
54168;DHT22;68429;50.958;3.592;2023-06-10T11:53:49;33.90;71.00
54168;DHT22;68429;50.958;3.592;2023-06-10T11:56:28;33.70;70.30
54168;DHT22;68429;50.958;3.592;2023-06-10T11:59:06;33.20;71.10
54168;DHT22;68429;50.958;3.592;2023-06-10T12:01:37;32.90;70.80
54168;DHT22;68429;50.958;3.592;2023-06-10T12:04:12;33.70;71.00
54168;DHT22;68429;50.958;3.592;2023-06-10T12:06:48;34.20;68.80
54168;DHT22;68429;50.958;3.592;2023-06-10T12:11:42;33.40;68.80
54168;DHT22;68429;50.958;3.592;2023-06-10T12:14:09;33.00;68.40
54168;DHT22;68429;50.958;3.592;2023-06-10T12:16:35;32.70;69.20
54168;DHT22;68429;50.958;3.592;2023-06-10T12:19:02;32.90;69.10
54168;DHT22;68429;50.958;3.592;2023-06-10T12:21:29;34.20;68.70
54168;DHT22;68429;50.958;3.592;2023-06-10T12:24:24;35.60;68.70
54168;DHT22;68429;50.958;3.592;2023-06-10T12:26:53;35.30;67.40
54168;DHT22;68429;50.958;3.592;2023-06-10T12:29:24;35.00;65.70
54168;DHT22;68429;50.958;3.592;2023-06-10T12:32:01;34.80;66.40
54168;DHT22;68429;50.958;3.592;2023-06-10T12:34:39;33.10;66.50
54168;DHT22;68429;50.958;3.592;2023-06-10T12:37:10;32.90;68.00
54168;DHT22;68429;50.958;3.592;2023-06-10T12:39:39;32.30;68.60
54168;DHT22;68429;50.958;3.592;2023-06-10T12:42:05;32.80;67.70
54168;DHT22;68429;50.958;3.592;2023-06-10T12:44:35;32.80;66.60
54168;DHT22;68429;50.958;3.592;2023-06-10T12:47:13;31.40;68.00
54168;DHT22;68429;50.958;3.592;2023-06-10T12:49:39;31.70;68.10
54168;DHT22;68429;50.958;3.592;2023-06-10T12:52:05;31.30;68.50
54168;DHT22;68429;50.958;3.592;2023-06-10T12:54:31;31.40;68.40
54168;DHT22;68429;50.958;3.592;2023-06-10T12:56:56;31.10;68.30
54168;DHT22;68429;50.958;3.592;2023-06-10T12:59:22;31.40;67.40
54168;DHT22;68429;50.958;3.592;2023-06-10T13:01:53;31.00;68.60
54168;DHT22;68429;50.958;3.592;2023-06-10T13:04:19;30.70;68.30
54168;DHT22;68429;50.958;3.592;2023-06-10T13:06:46;31.40;67.90
54168;DHT22;68429;50.958;3.592;2023-06-10T13:09:13;32.40;66.60
54168;DHT22;68429;50.958;3.592;2023-06-10T13:11:39;32.10;67.30
54168;DHT22;68429;50.958;3.592;2023-06-10T13:14:06;31.60;67.80
54168;DHT22;68429;50.958;3.592;2023-06-10T13:16:32;32.40;67.60
54168;DHT22;68429;50.958;3.592;2023-06-10T13:18:58;32.90;68.20
54168;DHT22;68429;50.958;3.592;2023-06-10T13:21:24;33.80;66.40
54168;DHT22;68429;50.958;3.592;2023-06-10T13:23:50;33.70;66.00
54168;DHT22;68429;50.958;3.592;2023-06-10T13:26:17;33.30;66.70
54168;DHT22;68429;50.958;3.592;2023-06-10T13:28:45;33.60;67.00
54168;DHT22;68429;50.958;3.592;2023-06-10T13:31:11;34.00;64.80
54168;DHT22;68429;50.958;3.592;2023-06-10T13:33:37;33.80;65.90
54168;DHT22;68429;50.958;3.592;2023-06-10T13:36:03;34.70;65.30
54168;DHT22;68429;50.958;3.592;2023-06-10T13:38:29;35.60;63.40
54168;DHT22;68429;50.958;3.592;2023-06-10T13:40:54;34.80;64.80
54168;DHT22;68429;50.958;3.592;2023-06-10T13:43:20;34.50;65.40
54168;DHT22;68429;50.958;3.592;2023-06-10T13:45:46;33.50;66.20
54168;DHT22;68429;50.958;3.592;2023-06-10T13:48:12;33.90;66.30
54168;DHT22;68429;50.958;3.592;2023-06-10T13:50:38;32.60;65.40
54168;DHT22;68429;50.958;3.592;2023-06-10T13:53:03;33.90;65.70
54168;DHT22;68429;50.958;3.592;2023-06-10T13:55:29;34.20;65.90
54168;DHT22;68429;50.958;3.592;2023-06-10T13:57:55;34.20;64.70
54168;DHT22;68429;50.958;3.592;2023-06-10T14:00:21;34.40;64.30
54168;DHT22;68429;50.958;3.592;2023-06-10T14:02:46;34.20;64.20
54168;DHT22;68429;50.958;3.592;2023-06-10T14:05:12;34.10;64.10
54168;DHT22;68429;50.958;3.592;2023-06-10T14:07:38;33.20;64.20
54168;DHT22;68429;50.958;3.592;2023-06-10T14:10:05;33.40;65.30
54168;DHT22;68429;50.958;3.592;2023-06-10T14:12:31;34.00;65.10
54168;DHT22;68429;50.958;3.592;2023-06-10T14:14:56;33.40;66.20
54168;DHT22;68429;50.958;3.592;2023-06-10T14:17:22;33.60;65.10
54168;DHT22;68429;50.958;3.592;2023-06-10T14:19:48;33.30;65.50
54168;DHT22;68429;50.958;3.592;2023-06-10T14:22:14;32.40;66.30
54168;DHT22;68429;50.958;3.592;2023-06-10T14:24:40;32.80;66.50
54168;DHT22;68429;50.958;3.592;2023-06-10T14:27:06;33.40;65.40
54168;DHT22;68429;50.958;3.592;2023-06-10T14:29:31;34.00;66.30
54168;DHT22;68429;50.958;3.592;2023-06-10T14:31:59;33.80;65.40
54168;DHT22;68429;50.958;3.592;2023-06-10T14:34:25;33.50;64.70
54168;DHT22;68429;50.958;3.592;2023-06-10T14:36:54;33.90;64.60
54168;DHT22;68429;50.958;3.592;2023-06-10T14:39:20;33.90;64.90
54168;DHT22;68429;50.958;3.592;2023-06-10T14:41:46;33.70;65.10
54168;DHT22;68429;50.958;3.592;2023-06-10T14:44:11;34.50;64.80
54168;DHT22;68429;50.958;3.592;2023-06-10T14:46:37;34.30;64.60
54168;DHT22;68429;50.958;3.592;2023-06-10T14:49:03;33.70;65.10
54168;DHT22;68429;50.958;3.592;2023-06-10T14:51:28;34.00;64.20
54168;DHT22;68429;50.958;3.592;2023-06-10T14:53:54;32.90;65.60
54168;DHT22;68429;50.958;3.592;2023-06-10T14:56:19;31.90;67.20
54168;DHT22;68429;50.958;3.592;2023-06-10T14:58:45;31.70;67.50
54168;DHT22;68429;50.958;3.592;2023-06-10T15:01:11;31.00;67.80
54168;DHT22;68429;50.958;3.592;2023-06-10T15:03:36;30.70;68.50
54168;DHT22;68429;50.958;3.592;2023-06-10T15:06:02;31.00;69.20
54168;DHT22;68429;50.958;3.592;2023-06-10T15:08:28;31.70;69.20
54168;DHT22;68429;50.958;3.592;2023-06-10T15:10:54;32.60;68.10
54168;DHT22;68429;50.958;3.592;2023-06-10T15:13:20;33.00;66.00
54168;DHT22;68429;50.958;3.592;2023-06-10T15:15:45;33.20;65.40
54168;DHT22;68429;50.958;3.592;2023-06-10T15:18:11;33.20;66.70
54168;DHT22;68429;50.958;3.592;2023-06-10T15:20:37;32.90;67.50
54168;DHT22;68429;50.958;3.592;2023-06-10T15:23:02;32.00;68.30
54168;DHT22;68429;50.958;3.592;2023-06-10T15:25:28;31.70;67.40
54168;DHT22;68429;50.958;3.592;2023-06-10T15:27:54;32.40;66.50
54168;DHT22;68429;50.958;3.592;2023-06-10T15:30:20;32.80;66.50
54168;DHT22;68429;50.958;3.592;2023-06-10T15:32:45;32.60;66.40
54168;DHT22;68429;50.958;3.592;2023-06-10T15:35:11;32.00;66.20
54168;DHT22;68429;50.958;3.592;2023-06-10T15:37:37;31.80;67.10
54168;DHT22;68429;50.958;3.592;2023-06-10T15:40:03;31.90;67.80
54168;DHT22;68429;50.958;3.592;2023-06-10T15:42:29;32.20;68.00
54168;DHT22;68429;50.958;3.592;2023-06-10T15:44:55;32.40;66.20
54168;DHT22;68429;50.958;3.592;2023-06-10T15:47:20;32.50;66.50
54168;DHT22;68429;50.958;3.592;2023-06-10T15:49:46;32.40;66.70
54168;DHT22;68429;50.958;3.592;2023-06-10T15:52:12;32.00;66.70
54168;DHT22;68429;50.958;3.592;2023-06-10T15:54:37;32.20;66.60
54168;DHT22;68429;50.958;3.592;2023-06-10T15:57:03;32.50;66.30